Time;durP1;ratioP1;P1;durP2;ratioP2;P2;SDS_P1;SDS_P2;PMS_P1;PMS_P2;Temp;Humidity;BMP_temperature;BMP_pressure;BME280_temperature;BME280_humidity;BME280_pressure;Samples;Min_cycle;Max_cycle;Signal;HPM_P1;HPM_P2
2023/10/02 00:01:58;;;;;;;20.33;12.93;;;;;;;12.13;100.00;100761.00;5042090;28;20227;-62
2023/10/02 00:04:24;;;;;;;16.33;11.37;;;;;;;12.10;100.00;100766.31;5051996;28;20178;-62
2023/10/02 00:07:05;;;;;;;16.90;10.57;;;;;;;12.13;100.00;100771.31;5060326;28;20319;-62
2023/10/02 00:09:35;;;;;;;18.40;11.83;;;;;;;12.06;100.00;100773.34;5064611;28;20180;-62
2023/10/02 00:12:11;;;;;;;14.37;10.77;;;;;;;12.08;100.00;100773.28;5042091;28;20229;-61
2023/10/02 00:14:38;;;;;;;19.60;12.20;;;;;;;12.01;100.00;100764.19;5070784;28;20173;-61
2023/10/02 00:17:03;;;;;;;15.50;11.03;;;;;;;12.02;100.00;100766.69;5045279;28;20201;-63
2023/10/02 00:19:36;;;;;;;14.63;11.13;;;;;;;12.02;100.00;100763.25;5070402;28;20532;-62
2023/10/02 00:24:58;;;;;;;18.07;11.27;;;;;;;11.92;100.00;100765.44;5023469;28;20664;-62
2023/10/02 00:27:24;;;;;;;13.80;10.33;;;;;;;11.93;100.00;100762.81;5046944;28;20182;-62
2023/10/02 00:29:57;;;;;;;15.00;10.77;;;;;;;11.91;100.00;100763.78;5031224;28;20181;-62
2023/10/02 00:32:26;;;;;;;17.57;11.27;;;;;;;11.94;100.00;100766.19;5039482;28;20230;-63
2023/10/02 00:34:52;;;;;;;16.03;11.07;;;;;;;11.94;100.00;100758.47;5051163;28;20182;-62
2023/10/02 00:37:18;;;;;;;17.73;11.67;;;;;;;11.86;100.00;100766.59;5051716;28;20707;-63
2023/10/02 00:39:52;;;;;;;18.03;11.43;;;;;;;11.86;100.00;100763.19;5035772;28;20213;-62
2023/10/02 00:42:24;;;;;;;20.37;11.63;;;;;;;11.84;100.00;100762.41;5040237;28;20275;-63
2023/10/02 00:44:54;;;;;;;15.63;11.30;;;;;;;11.86;100.00;100763.19;5052702;28;20276;-62
2023/10/02 00:47:42;;;;;;;18.87;11.70;;;;;;;11.79;100.00;100763.50;5051962;28;20187;-61
2023/10/02 00:50:19;;;;;;;19.87;12.63;;;;;;;11.75;100.00;100767.09;5028173;28;20178;-63
2023/10/02 00:52:56;;;;;;;18.17;12.07;;;;;;;11.65;100.00;100767.63;5047774;28;20181;-61
2023/10/02 00:55:24;;;;;;;15.00;11.37;;;;;;;11.70;100.00;100766.50;5023526;28;20228;-62
2023/10/02 00:57:53;;;;;;;13.97;11.07;;;;;;;11.73;100.00;100763.78;5035091;28;20300;-61
2023/10/02 01:00:30;;;;;;;18.17;11.47;;;;;;;11.68;100.00;100762.34;5027951;28;20189;-62
2023/10/02 01:02:57;;;;;;;15.70;11.27;;;;;;;11.67;100.00;100763.22;5047351;28;20693;-61
2023/10/02 01:05:30;;;;;;;17.00;11.23;;;;;;;11.64;100.00;100753.91;5036445;28;20638;-62
2023/10/02 01:07:59;;;;;;;20.07;11.03;;;;;;;11.52;100.00;100762.22;5037597;28;20196;-62
2023/10/02 01:10:29;;;;;;;17.87;11.90;;;;;;;11.53;100.00;100757.00;5028899;28;20225;-62
2023/10/02 01:13:01;;;;;;;16.13;11.40;;;;;;;11.52;100.00;100767.38;5054545;28;20673;-62
2023/10/02 01:15:27;;;;;;;17.57;11.73;;;;;;;11.61;100.00;100774.69;5052871;28;20592;-63
2023/10/02 01:18:18;;;;;;;18.07;11.23;;;;;;;11.46;100.00;100768.50;5053202;28;20292;-63
2023/10/02 01:20:45;;;;;;;15.00;10.93;;;;;;;11.45;100.00;100770.25;5047913;28;20267;-62
2023/10/02 01:23:16;;;;;;;15.70;11.83;;;;;;;11.42;100.00;100766.97;5043962;28;20244;-62
2023/10/02 01:25:44;;;;;;;18.37;12.30;;;;;;;11.46;100.00;100773.66;5050488;28;20269;-61
2023/10/02 01:28:10;;;;;;;16.57;11.63;;;;;;;11.52;100.00;100768.22;5042921;28;20182;-62
2023/10/02 01:30:36;;;;;;;15.43;11.97;;;;;;;11.49;100.00;100773.53;5034514;28;20222;-62
2023/10/02 01:33:21;;;;;;;14.83;11.30;;;;;;;11.50;100.00;100777.78;5035908;28;20595;-61
2023/10/02 01:35:55;;;;;;;16.23;11.80;;;;;;;11.46;100.00;100771.94;5032900;28;20205;-61
2023/10/02 01:38:31;;;;;;;16.80;12.77;;;;;;;11.43;100.00;100774.63;5034359;28;20511;-62
2023/10/02 01:41:04;;;;;;;16.97;12.30;;;;;;;11.39;100.00;100780.03;5038926;28;20231;-61
2023/10/02 01:43:43;;;;;;;18.17;12.23;;;;;;;11.37;100.00;100768.94;5049227;28;20286;-61
2023/10/02 01:46:10;;;;;;;20.30;12.57;;;;;;;11.42;100.00;100772.13;5053889;28;20189;-62
2023/10/02 01:48:37;;;;;;;17.00;11.77;;;;;;;11.44;100.00;100763.44;5053710;28;20197;-61
2023/10/02 01:51:15;;;;;;;18.70;12.83;;;;;;;11.46;100.00;100761.63;5061998;28;20247;-62
2023/10/02 01:53:48;;;;;;;18.33;12.90;;;;;;;11.41;100.00;100760.16;5052278;28;20270;-61
2023/10/02 01:56:15;;;;;;;18.67;13.10;;;;;;;11.42;100.00;100754.09;5053761;28;20219;-62
2023/10/02 01:58:41;;;;;;;17.07;11.33;;;;;;;11.38;100.00;100757.75;5069038;28;20541;-61
2023/10/02 02:01:10;;;;;;;17.93;12.37;;;;;;;11.37;100.00;100754.31;5061619;28;20239;-61
2023/10/02 02:03:41;;;;;;;16.53;12.30;;;;;;;11.34;100.00;100761.34;5052419;28;20966;-62
2023/10/02 02:06:10;;;;;;;16.37;12.20;;;;;;;11.29;100.00;100759.84;5053542;28;20247;-62
2023/10/02 02:08:37;;;;;;;17.70;11.63;;;;;;;11.30;100.00;100758.94;5052383;28;20267;-62
2023/10/02 02:11:16;;;;;;;21.10;12.73;;;;;;;11.26;100.00;100752.28;5050645;28;20232;-62
2023/10/02 02:13:46;;;;;;;16.93;13.23;;;;;;;11.24;100.00;100758.41;5051422;28;20699;-63
2023/10/02 02:16:25;;;;;;;18.47;13.03;;;;;;;11.24;100.00;100756.66;5052240;28;20185;-62
2023/10/02 02:18:53;;;;;;;17.83;12.27;;;;;;;11.29;100.00;100761.59;5053256;28;20213;-62
2023/10/02 02:21:19;;;;;;;21.20;13.60;;;;;;;11.30;100.00;100756.34;5053162;28;20278;-62
2023/10/02 02:23:46;;;;;;;16.43;12.07;;;;;;;11.25;100.00;100757.47;5051128;28;20232;-62
2023/10/02 02:26:22;;;;;;;19.83;13.90;;;;;;;11.29;100.00;100759.00;5053334;28;20207;-63
2023/10/02 02:28:51;;;;;;;17.80;12.97;;;;;;;11.30;100.00;100756.34;5053056;28;20181;-63
2023/10/02 02:31:30;;;;;;;17.57;12.70;;;;;;;11.19;100.00;100762.91;5061265;28;20220;-61
2023/10/02 02:34:00;;;;;;;18.77;12.43;;;;;;;11.30;100.00;100765.84;5051881;28;20175;-62
2023/10/02 02:36:27;;;;;;;17.83;11.97;;;;;;;11.40;100.00;100759.34;5052046;28;20636;-61
2023/10/02 02:39:15;;;;;;;21.67;12.77;;;;;;;11.27;100.00;100765.97;5052691;28;20247;-63
2023/10/02 02:41:41;;;;;;;19.97;13.27;;;;;;;11.26;100.00;100754.84;5060347;28;20231;-61
2023/10/02 02:44:06;;;;;;;18.60;13.83;;;;;;;11.27;100.00;100761.63;5047977;28;20633;-61
2023/10/02 02:46:32;;;;;;;17.60;12.50;;;;;;;11.34;100.00;100751.91;5052943;28;20189;-62
2023/10/02 02:49:00;;;;;;;19.20;12.50;;;;;;;11.45;100.00;100761.69;5052844;28;20189;-63
2023/10/02 02:51:25;;;;;;;18.77;13.53;;;;;;;11.46;100.00;100755.63;5052448;28;20256;-62
2023/10/02 02:53:51;;;;;;;17.77;12.27;;;;;;;11.51;100.00;100747.69;5056857;28;20208;-62
2023/10/02 02:56:22;;;;;;;18.90;12.43;;;;;;;11.54;100.00;100750.94;5052433;28;20699;-62
2023/10/02 02:58:55;;;;;;;19.17;12.63;;;;;;;11.52;100.00;100755.31;5052770;28;20255;-63
2023/10/02 03:01:22;;;;;;;22.53;14.37;;;;;;;11.59;100.00;100761.84;5060393;28;20231;-64
2023/10/02 03:03:56;;;;;;;19.60;13.37;;;;;;;11.51;100.00;100760.56;5057146;28;20645;-63
2023/10/02 03:06:23;;;;;;;18.07;13.00;;;;;;;11.38;100.00;100750.03;5067819;28;20540;-61
2023/10/02 03:08:52;;;;;;;20.67;13.07;;;;;;;11.49;100.00;100752.91;5054628;28;20197;-63
2023/10/02 03:11:22;;;;;;;16.90;12.43;;;;;;;11.51;100.00;100745.94;5058289;28;20223;-66
2023/10/02 03:13:50;;;;;;;18.07;13.73;;;;;;;11.50;100.00;100746.00;5058895;28;20201;-62
2023/10/02 03:16:19;;;;;;;16.37;11.97;;;;;;;11.49;100.00;100750.34;5067264;28;20208;-62
2023/10/02 03:18:48;;;;;;;16.77;12.10;;;;;;;11.49;100.00;100749.50;5052150;28;20675;-64
2023/10/02 03:21:24;;;;;;;18.47;12.80;;;;;;;11.38;100.00;100753.41;5054513;28;20303;-63
2023/10/02 03:23:51;;;;;;;19.53;12.53;;;;;;;11.37;100.00;100753.50;5071908;28;20229;-63
2023/10/02 03:26:26;;;;;;;17.00;12.50;;;;;;;11.35;100.00;100751.00;5058085;28;20165;-61
2023/10/02 03:29:01;;;;;;;17.30;11.97;;;;;;;11.30;100.00;100752.97;5054308;28;20181;-63
2023/10/02 03:31:37;;;;;;;21.93;13.53;;;;;;;11.29;100.00;100746.97;5030823;28;20303;-62
2023/10/02 03:36:52;;;;;;;21.50;12.87;;;;;;;11.11;100.00;100745.25;5055753;28;20672;-62
2023/10/02 03:39:23;;;;;;;20.87;12.87;;;;;;;11.10;100.00;100748.72;5049810;28;20698;-63
2023/10/02 03:41:50;;;;;;;18.00;13.53;;;;;;;11.14;100.00;100750.28;5057143;28;20533;-62
2023/10/02 03:44:15;;;;;;;19.77;13.33;;;;;;;11.19;100.00;100748.31;5062523;28;20177;-62
2023/10/02 03:46:42;;;;;;;17.67;13.23;;;;;;;11.18;100.00;100750.97;5049416;28;20273;-62
2023/10/02 03:49:08;;;;;;;21.27;14.03;;;;;;;11.10;100.00;100749.56;5059015;28;20176;-61
2023/10/02 03:51:37;;;;;;;18.27;12.57;;;;;;;10.95;100.00;100737.38;5044837;28;20228;-62
2023/10/02 03:54:17;;;;;;;21.17;14.20;;;;;;;10.91;100.00;100738.44;5043626;28;20185;-62
2023/10/02 03:56:49;;;;;;;18.80;13.60;;;;;;;10.90;100.00;100727.31;5031452;28;20630;-62
2023/10/02 03:59:21;;;;;;;19.43;14.47;;;;;;;10.91;100.00;100730.72;5026436;28;20182;-62
2023/10/02 04:01:48;;;;;;;22.57;14.63;;;;;;;10.98;100.00;100734.69;5046877;28;20314;-62
2023/10/02 04:06:42;;;;;;;20.07;15.37;;;;;;;10.93;100.00;100734.06;5049749;28;20648;-62
2023/10/02 04:11:45;;;;;;;21.97;15.53;;;;;;;10.85;100.00;100728.44;5061895;28;20243;-63
2023/10/02 04:17:20;;;;;;;22.40;14.93;;;;;;;10.85;100.00;100733.56;5028089;28;20212;-62
2023/10/02 04:20:01;;;;;;;21.60;15.17;;;;;;;10.87;100.00;100729.22;5028306;28;20681;-63
2023/10/02 04:22:26;;;;;;;23.90;16.40;;;;;;;10.85;100.00;100726.69;4979195;28;1117140;-61
2023/10/02 04:25:03;;;;;;;21.33;14.43;;;;;;;10.85;100.00;100723.28;5029253;28;20359;-62
2023/10/02 04:32:39;;;;;;;21.30;16.30;;;;;;;10.89;100.00;100735.09;5028435;28;20206;-62
2023/10/02 04:35:44;;;;;;;22.67;14.87;;;;;;;10.81;100.00;100738.84;5029812;28;20170;-62
2023/10/02 04:37:58;;;;;;;20.60;13.80;;;;;;;10.79;100.00;100745.81;5028925;28;20222;-63
2023/10/02 04:40:37;;;;;;;20.67;14.50;;;;;;;10.68;100.00;100740.34;5019112;28;20276;-62
2023/10/02 04:43:19;;;;;;;18.80;14.47;;;;;;;10.77;100.00;100744.22;5028859;28;20242;-62
2023/10/02 04:45:46;;;;;;;21.17;15.13;;;;;;;10.79;100.00;100748.41;5028836;28;20642;-63
2023/10/02 04:48:12;;;;;;;21.93;14.57;;;;;;;10.76;100.00;100752.84;5012604;28;20638;-61
2023/10/02 04:50:45;;;;;;;22.33;14.57;;;;;;;10.71;100.00;100753.03;5023670;28;20221;-63
2023/10/02 04:55:41;;;;;;;22.93;15.40;;;;;;;10.70;100.00;100759.09;5050199;28;20669;-62
2023/10/02 04:58:14;;;;;;;19.33;14.93;;;;;;;10.75;100.00;100757.13;5049497;28;20280;-62
2023/10/02 05:03:29;;;;;;;21.97;14.60;;;;;;;10.65;100.00;100769.59;5050614;28;20181;-63
2023/10/02 05:05:58;;;;;;;20.03;14.57;;;;;;;10.63;100.00;100768.84;5051128;28;20191;-62
2023/10/02 05:08:41;;;;;;;21.97;14.23;;;;;;;10.47;100.00;100760.94;5046811;28;20205;-61
2023/10/02 05:11:23;;;;;;;23.37;15.07;;;;;;;10.57;100.00;100755.41;5039179;28;20252;-62
2023/10/02 05:19:46;;;;;;;20.67;14.43;;;;;;;10.56;100.00;100748.59;5036274;28;20240;-62
2023/10/02 05:22:04;;;;;;;20.77;14.13;;;;;;;10.59;100.00;100751.00;5041125;28;20609;-62
2023/10/02 05:24:31;;;;;;;22.20;15.27;;;;;;;10.49;100.00;100748.00;5032095;28;20181;-62
2023/10/02 05:26:59;;;;;;;23.53;15.60;;;;;;;10.43;100.00;100744.00;5051817;28;20181;-62
2023/10/02 05:29:36;;;;;;;24.00;15.20;;;;;;;10.46;100.00;100743.00;5051231;28;20389;-62
2023/10/02 05:32:16;;;;;;;22.00;14.50;;;;;;;10.36;100.00;100760.56;5030065;28;20224;-62
2023/10/02 05:34:58;;;;;;;22.47;14.07;;;;;;;10.41;100.00;100752.66;5031960;28;20272;-62
2023/10/02 05:37:34;;;;;;;19.70;14.63;;;;;;;10.49;100.00;100746.28;5031914;28;20206;-61
2023/10/02 05:45:40;;;;;;;24.33;15.87;;;;;;;10.71;100.00;100765.91;5031589;28;20185;-63
2023/10/02 05:48:14;;;;;;;20.47;14.47;;;;;;;10.52;100.00;100771.03;5015460;28;20189;-61
2023/10/02 05:50:45;;;;;;;25.07;14.83;;;;;;;10.65;100.00;100766.19;5014018;28;20632;-63
2023/10/02 05:53:10;;;;;;;23.80;15.37;;;;;;;10.78;100.00;100769.06;5050416;28;20194;-62
2023/10/02 05:58:27;;;;;;;20.93;14.83;;;;;;;10.90;100.00;100765.94;5039403;28;20260;-62
2023/10/02 06:00:54;;;;;;;23.73;16.00;;;;;;;10.99;100.00;100772.41;5023750;28;20245;-64
2023/10/02 06:03:21;;;;;;;25.23;15.50;;;;;;;11.01;100.00;100770.56;5037365;28;20186;-62
2023/10/02 06:06:10;;;;;;;23.67;15.53;;;;;;;11.03;100.00;100766.19;5033704;28;20637;-61
2023/10/02 06:08:33;;;;;;;22.53;15.17;;;;;;;11.13;100.00;100766.63;5033328;28;20192;-61
2023/10/02 06:13:46;;;;;;;23.10;14.57;;;;;;;11.40;100.00;100767.06;5058295;28;20284;-62
2023/10/02 06:16:12;;;;;;;19.43;13.07;;;;;;;11.63;100.00;100763.41;5051680;28;20610;-63
2023/10/02 06:18:38;;;;;;;23.07;13.20;;;;;;;11.71;100.00;100762.16;5053025;28;20219;-62
2023/10/02 06:21:04;;;;;;;18.03;11.60;;;;;;;12.10;100.00;100771.47;5042412;28;20244;-62
2023/10/02 06:23:37;;;;;;;16.03;11.97;;;;;;;12.68;100.00;100769.38;5029339;28;20324;-64
2023/10/02 06:26:09;;;;;;;18.27;12.00;;;;;;;13.48;100.00;100761.66;5038806;28;20184;-62
2023/10/02 06:28:35;;;;;;;18.50;12.07;;;;;;;14.46;100.00;100765.47;5052354;28;20181;-62
2023/10/02 06:31:01;;;;;;;15.27;10.47;;;;;;;15.70;100.00;100751.75;5044345;28;20228;-62
2023/10/02 06:33:27;;;;;;;16.10;10.47;;;;;;;16.62;100.00;100749.88;5029551;28;20691;-62
2023/10/02 06:36:00;;;;;;;15.77;10.40;;;;;;;17.07;100.00;100746.81;5042565;28;20608;-63
2023/10/02 06:38:32;;;;;;;13.87;10.23;;;;;;;18.58;100.00;100752.13;5036854;28;20224;-63
2023/10/02 06:40:59;;;;;;;16.47;10.83;;;;;;;19.72;100.00;100756.06;5044467;28;20239;-63
2023/10/02 06:43:32;;;;;;;13.13;10.17;;;;;;;19.80;100.00;100761.47;5032846;28;20240;-64
2023/10/02 06:46:06;;;;;;;17.50;11.07;;;;;;;20.06;100.00;100768.13;5019187;28;20525;-61
2023/10/02 06:48:54;;;;;;;17.87;11.77;;;;;;;20.24;100.00;100766.56;5021505;28;20194;-64
2023/10/02 06:51:20;;;;;;;16.40;11.60;;;;;;;19.99;100.00;100763.41;5039696;28;20217;-63
2023/10/02 06:53:46;;;;;;;22.77;11.20;;;;;;;19.70;100.00;100767.56;5040901;28;20189;-64
2023/10/02 06:56:12;;;;;;;15.63;10.77;;;;;;;19.80;100.00;100765.88;5034491;28;20677;-62
2023/10/02 06:58:49;;;;;;;18.07;11.07;;;;;;;20.39;100.00;100766.19;5033130;28;20637;-62
2023/10/02 07:01:18;;;;;;;15.77;11.30;;;;;;;21.75;99.95;100768.19;5031542;28;20221;-62
2023/10/02 07:03:56;;;;;;;15.93;11.57;;;;;;;22.93;90.83;100766.94;5038673;28;20716;-62
2023/10/02 07:06:26;;;;;;;13.23;10.23;;;;;;;24.21;81.40;100766.63;5033895;28;20193;-63
2023/10/02 07:09:10;;;;;;;14.17;11.03;;;;;;;25.31;69.42;100774.53;5033814;28;20198;-62
2023/10/02 07:11:42;;;;;;;16.50;12.13;;;;;;;26.26;60.28;100775.75;5049099;28;20615;-62
2023/10/02 07:14:09;;;;;;;13.48;10.90;;;;;;;26.13;60.07;100778.91;5052675;28;20173;-62
2023/10/02 07:16:34;;;;;;;13.45;10.65;;;;;;;26.21;60.96;100783.31;5032779;28;20612;-63
2023/10/02 07:19:00;;;;;;;13.77;10.25;;;;;;;26.55;58.62;100782.22;5032929;28;20202;-63
2023/10/02 07:21:30;;;;;;;14.35;10.88;;;;;;;26.48;59.31;100779.44;5032041;28;20232;-62
2023/10/02 07:23:56;;;;;;;16.98;12.07;;;;;;;26.12;61.34;100779.91;5029933;28;20229;-62
2023/10/02 07:26:49;;;;;;;16.95;11.40;;;;;;;24.37;75.11;100779.84;5031542;28;20189;-62
2023/10/02 07:29:08;;;;;;;14.73;11.65;;;;;;;22.62;93.01;100777.75;5030626;28;20190;-62
2023/10/02 07:31:34;;;;;;;17.17;11.38;;;;;;;21.49;99.97;100769.72;4991872;28;20741;-63
2023/10/02 07:34:00;;;;;;;16.45;12.18;;;;;;;21.92;99.67;100771.91;5026440;28;20170;-64
2023/10/02 07:36:26;;;;;;;14.95;10.65;;;;;;;20.95;100.00;100773.56;5030660;28;20266;-63
2023/10/02 07:38:53;;;;;;;15.88;12.10;;;;;;;20.67;100.00;100774.28;5031732;28;20285;-63
2023/10/02 07:41:23;;;;;;;18.75;12.18;;;;;;;19.70;100.00;100775.41;5041714;28;20312;-63
2023/10/02 07:43:51;;;;;;;17.03;12.30;;;;;;;18.96;100.00;100775.19;5031578;28;20659;-63
2023/10/02 07:46:18;;;;;;;17.17;11.87;;;;;;;18.27;100.00;100778.78;5036898;28;20228;-62
2023/10/02 07:48:55;;;;;;;16.90;11.63;;;;;;;18.08;100.00;100770.69;5051391;28;20220;-64
2023/10/02 07:51:30;;;;;;;17.40;13.07;;;;;;;17.95;100.00;100773.38;5040225;28;20279;-64
2023/10/02 07:53:56;;;;;;;17.47;11.90;;;;;;;17.89;100.00;100782.47;5035793;28;20181;-63
2023/10/02 07:56:23;;;;;;;18.67;13.50;;;;;;;17.79;100.00;100777.09;5048103;28;20185;-62
2023/10/02 07:58:54;;;;;;;18.23;12.80;;;;;;;17.31;100.00;100782.38;5051093;28;20727;-63
2023/10/02 08:01:23;;;;;;;20.63;13.03;;;;;;;17.43;100.00;100778.88;5021753;28;20222;-61
2023/10/02 08:03:49;;;;;;;20.70;13.23;;;;;;;17.22;100.00;100779.47;5016462;28;20185;-64
2023/10/02 08:06:23;;;;;;;19.37;13.23;;;;;;;16.98;100.00;100776.88;5012319;28;20237;-62
2023/10/02 08:09:35;;;;;;;20.17;13.27;;;;;;;17.03;100.00;100774.78;5023716;28;20189;-64
2023/10/02 08:11:37;;;;;;;20.23;13.00;;;;;;;17.03;100.00;100771.31;5032765;28;20667;-62
2023/10/02 08:14:03;;;;;;;22.10;12.70;;;;;;;17.12;100.00;100781.09;5034245;28;20194;-61
2023/10/02 08:16:33;;;;;;;17.07;11.60;;;;;;;17.19;100.00;100777.13;5031346;28;20178;-64
2023/10/02 08:18:59;;;;;;;26.47;14.40;;;;;;;16.91;100.00;100781.66;5046519;28;20823;-62
2023/10/02 08:21:36;;;;;;;21.23;14.13;;;;;;;16.96;100.00;100775.31;5031363;28;20688;-65
2023/10/02 08:24:05;;;;;;;22.50;16.03;;;;;;;17.08;100.00;100769.25;5045672;28;20529;-62
2023/10/02 08:26:44;;;;;;;20.00;14.70;;;;;;;17.09;100.00;100771.75;5020918;28;20821;-62
2023/10/02 08:29:12;;;;;;;24.87;16.47;;;;;;;16.88;100.00;100771.47;5010327;28;20170;-62
2023/10/02 08:31:43;;;;;;;20.03;15.23;;;;;;;16.72;100.00;100770.84;5032327;28;20232;-66
2023/10/02 08:34:12;;;;;;;21.83;15.40;;;;;;;16.86;100.00;100773.34;5024411;28;20628;-62
2023/10/02 08:36:38;;;;;;;21.57;15.73;;;;;;;17.19;100.00;100773.66;5049215;28;20185;-62
2023/10/02 08:39:04;;;;;;;24.80;15.33;;;;;;;17.18;100.00;100775.44;5050886;28;20258;-62
2023/10/02 08:41:30;;;;;;;20.83;14.73;;;;;;;17.32;100.00;100779.66;5050610;28;20706;-63
2023/10/02 08:43:55;;;;;;;20.43;14.87;;;;;;;17.65;100.00;100777.28;5048971;28;20216;-63
2023/10/02 08:46:23;;;;;;;18.93;14.20;;;;;;;17.36;100.00;100778.47;5049826;28;20231;-63
2023/10/02 08:48:54;;;;;;;19.43;15.77;;;;;;;17.70;100.00;100776.03;5050842;28;20620;-63
2023/10/02 08:51:29;;;;;;;27.37;15.60;;;;;;;18.05;100.00;100775.19;5048186;28;20239;-63
2023/10/02 08:53:56;;;;;;;19.80;14.50;;;;;;;19.02;100.00;100771.28;5047236;28;20256;-62
2023/10/02 08:56:21;;;;;;;23.67;14.87;;;;;;;20.10;100.00;100767.72;5051850;28;20772;-63
2023/10/02 08:58:47;;;;;;;20.57;14.67;;;;;;;21.44;100.00;100760.47;5033666;28;20292;-63
2023/10/02 09:01:20;;;;;;;20.63;13.77;;;;;;;23.14;97.62;100766.66;5043411;28;20234;-62
2023/10/02 09:04:21;;;;;;;19.37;13.93;;;;;;;24.96;83.68;100766.75;5059895;28;20192;-62
2023/10/02 09:06:41;;;;;;;19.40;13.23;;;;;;;27.09;65.72;100773.53;5042589;28;20223;-63
2023/10/02 09:09:17;;;;;;;21.05;13.15;;;;;;;27.64;59.68;100773.44;5053447;28;20516;-63
2023/10/02 09:11:51;;;;;;;26.88;13.80;;;;;;;29.35;50.38;100767.97;5042680;28;20229;-60
2023/10/02 09:16:47;;;;;;;18.02;12.98;;;;;;;31.82;40.31;100772.44;5034420;28;20178;-59
2023/10/02 09:19:30;;;;;;;19.08;13.43;;;;;;;30.21;43.58;100766.06;5030257;28;20263;-61
2023/10/02 09:22:10;;;;;;;21.10;13.23;;;;;;;32.07;40.90;100766.44;5022109;28;20854;-65
2023/10/02 09:24:55;;;;;;;15.13;13.18;;;;;;;33.13;37.75;100771.41;5025621;28;20175;-61
2023/10/02 09:27:30;;;;;;;18.02;13.18;;;;;;;31.12;42.22;100769.41;5031938;28;20220;-61
2023/10/02 09:30:19;;;;;;;22.90;13.65;;;;;;;31.06;40.93;100757.72;5034203;28;20182;-61
2023/10/02 09:36:07;;;;;;;17.25;14.05;;;;;;;31.68;39.44;100757.53;5052543;28;20415;-63
2023/10/02 09:38:33;;;;;;;19.73;14.07;;;;;;;31.35;40.05;100759.19;5053285;28;20208;-62
2023/10/02 09:43:33;;;;;;;19.27;13.02;;;;;;;32.30;39.29;100754.47;5060013;28;20622;-61
2023/10/02 09:46:21;;;;;;;17.33;12.35;;;;;;;31.26;39.15;100748.97;5043426;28;20280;-69
2023/10/02 09:49:07;;;;;;;19.05;12.80;;;;;;;31.75;39.05;100739.72;5032991;28;20186;-70
2023/10/02 09:51:45;;;;;;;19.52;12.85;;;;;;;33.78;35.77;100740.88;5049026;28;20233;-81
2023/10/02 09:54:34;;;;;;;20.48;13.27;;;;;;;32.98;36.55;100740.56;5056244;28;20228;-68
2023/10/02 09:57:05;;;;;;;18.10;13.35;;;;;;;33.46;36.53;100738.34;5073350;28;20446;-66
2023/10/02 09:59:48;;;;;;;18.42;12.10;;;;;;;33.54;35.59;100737.22;5047666;28;20245;-64
2023/10/02 10:05:00;;;;;;;19.92;13.15;;;;;;;31.10;40.41;100737.72;5033415;28;20190;-64
2023/10/02 10:07:46;;;;;;;17.88;12.35;;;;;;;29.27;44.89;100725.66;5033482;28;20209;-64
2023/10/02 10:10:57;;;;;;;14.82;11.80;;;;;;;27.65;52.70;100717.75;5038363;28;20285;-63
2023/10/02 10:13:24;;;;;;;16.27;12.52;;;;;;;29.50;45.66;100721.97;5020547;28;20293;-62
2023/10/02 10:15:49;;;;;;;15.13;11.93;;;;;;;29.38;47.36;100714.56;5032875;28;20244;-63
2023/10/02 10:18:17;;;;;;;15.80;12.02;;;;;;;27.30;59.07;100716.56;5028410;28;21592;-63
2023/10/02 10:20:44;;;;;;;20.42;13.70;;;;;;;27.14;67.05;100713.09;5025175;28;20236;-63
2023/10/02 10:23:31;;;;;;;17.65;12.07;;;;;;;26.01;71.73;100709.06;5013085;28;20222;-63
2023/10/02 10:26:07;;;;;;;17.05;13.00;;;;;;;25.60;76.93;100710.84;5032135;28;20698;-63
2023/10/02 10:28:33;;;;;;;19.05;13.38;;;;;;;24.40;87.94;100707.72;5048384;28;20666;-63
2023/10/02 10:31:02;;;;;;;16.73;11.85;;;;;;;23.11;98.33;100702.19;5009255;28;20241;-63
2023/10/02 10:33:33;;;;;;;15.50;11.65;;;;;;;23.24;98.07;100701.81;5022767;28;20178;-63
2023/10/02 10:36:02;;;;;;;18.15;12.25;;;;;;;22.99;100.00;100706.00;5031402;28;20186;-62
2023/10/02 10:38:36;;;;;;;21.08;12.60;;;;;;;22.28;100.00;100699.66;5032853;28;20287;-63
2023/10/02 10:41:06;;;;;;;15.82;11.65;;;;;;;22.42;100.00;100688.72;5024707;28;20294;-63
2023/10/02 10:46:17;;;;;;;17.40;12.20;;;;;;;22.09;100.00;100686.50;5015306;28;20638;-65
2023/10/02 10:48:48;;;;;;;18.20;11.87;;;;;;;22.13;100.00;100684.44;5017330;28;20175;-63
2023/10/02 10:51:27;;;;;;;18.00;12.03;;;;;;;22.01;100.00;100685.59;5027084;28;20605;-65
2023/10/02 10:54:09;;;;;;;17.57;11.60;;;;;;;22.09;100.00;100683.03;5037158;28;20186;-62
2023/10/02 10:56:34;;;;;;;18.53;11.83;;;;;;;21.99;100.00;100684.91;5047786;28;20626;-63
2023/10/02 10:59:11;;;;;;;18.37;11.30;;;;;;;22.28;100.00;100674.28;5032463;28;20194;-62
2023/10/02 11:02:09;;;;;;;21.47;11.70;;;;;;;22.18;100.00;100681.38;5034144;28;20216;-63
2023/10/02 11:04:39;;;;;;;19.93;12.73;;;;;;;21.76;100.00;100680.03;5032289;28;20182;-62
2023/10/02 11:07:19;;;;;;;17.83;11.50;;;;;;;21.90;100.00;100673.50;5047618;28;20170;-62
2023/10/02 11:10:16;;;;;;;16.37;11.70;;;;;;;22.20;100.00;100663.69;5047483;28;20174;-63
2023/10/02 11:13:00;;;;;;;17.73;11.00;;;;;;;21.98;100.00;100657.03;5040541;28;20234;-62
2023/10/02 11:15:46;;;;;;;14.80;11.13;;;;;;;21.98;100.00;100667.53;5069909;28;20624;-62
2023/10/02 11:18:23;;;;;;;14.50;10.20;;;;;;;22.01;100.00;100654.97;5063169;28;20201;-63
2023/10/02 11:20:51;;;;;;;17.27;10.83;;;;;;;22.18;100.00;100652.56;5044035;28;20245;-63
2023/10/02 11:23:40;;;;;;;16.77;11.97;;;;;;;22.30;100.00;100653.16;5020588;28;20214;-63
2023/10/02 11:26:13;;;;;;;17.93;11.20;;;;;;;22.37;100.00;100654.22;5019262;28;20574;-63
2023/10/02 11:28:49;;;;;;;19.73;11.57;;;;;;;22.27;100.00;100649.06;5033287;28;20561;-65
2023/10/02 11:31:32;;;;;;;17.77;11.40;;;;;;;22.37;100.00;100641.97;5002093;28;20226;-63
2023/10/02 11:34:06;;;;;;;16.93;11.20;;;;;;;22.31;100.00;100634.66;5041024;28;20648;-62
2023/10/02 11:36:37;;;;;;;15.53;10.97;;;;;;;22.16;100.00;100633.53;5058364;28;20382;-62
2023/10/02 11:39:19;;;;;;;16.20;10.17;;;;;;;22.31;100.00;100629.44;5057586;28;20296;-63
2023/10/02 11:41:46;;;;;;;13.87;9.90;;;;;;;22.54;100.00;100610.72;5031508;28;20224;-63
2023/10/02 11:44:13;;;;;;;15.90;10.10;;;;;;;22.43;100.00;100621.41;5028167;28;20293;-63
2023/10/02 11:46:48;;;;;;;15.93;10.50;;;;;;;22.31;100.00;100615.50;5029841;28;20190;-63
2023/10/02 11:49:13;;;;;;;14.17;9.83;;;;;;;22.41;100.00;100611.06;5031973;28;20185;-63
2023/10/02 11:51:39;;;;;;;18.20;11.10;;;;;;;22.76;100.00;100608.59;5024223;28;20584;-63
2023/10/02 11:54:13;;;;;;;15.17;10.60;;;;;;;22.95;100.00;100607.63;5040568;28;20181;-63
2023/10/02 11:56:38;;;;;;;16.57;10.80;;;;;;;23.33;99.39;100595.91;5032791;28;20926;-62
2023/10/02 11:59:04;;;;;;;18.37;11.00;;;;;;;23.39;100.00;100593.66;5031472;28;20209;-63
2023/10/02 12:01:29;;;;;;;16.00;10.17;;;;;;;23.46;100.00;100594.69;5043113;28;20231;-63
2023/10/02 12:03:57;;;;;;;12.90;10.33;;;;;;;23.33;100.00;100584.59;5054848;28;20200;-64
2023/10/02 12:06:27;;;;;;;17.40;11.87;;;;;;;23.35;100.00;100588.69;5048456;28;20177;-63
2023/10/02 12:08:56;;;;;;;18.10;10.73;;;;;;;23.15;100.00;100592.50;5049514;28;20189;-62
2023/10/02 12:11:24;;;;;;;16.53;10.43;;;;;;;23.24;100.00;100586.34;5041655;28;20318;-63
2023/10/02 12:13:51;;;;;;;16.43;10.73;;;;;;;23.44;100.00;100592.19;5053036;28;20252;-63
2023/10/02 12:16:22;;;;;;;15.83;10.90;;;;;;;23.53;99.29;100579.94;5018942;28;20190;-64
2023/10/02 12:18:49;;;;;;;15.05;11.23;;;;;;;23.61;99.91;100584.41;5030926;28;20691;-64